sensor_id;sensor_type;location;lat;lon;timestamp;P1;durP1;ratioP1;P2;durP2;ratioP2
75062;SDS011;63981;51.052;13.754;2023-03-19T00:00:11;15.68;;;9.38;;
75062;SDS011;63981;51.052;13.754;2023-03-19T00:02:37;16.88;;;9.60;;
75062;SDS011;63981;51.052;13.754;2023-03-19T00:05:04;15.65;;;9.13;;
75062;SDS011;63981;51.052;13.754;2023-03-19T00:07:30;16.13;;;9.88;;
75062;SDS011;63981;51.052;13.754;2023-03-19T00:09:56;16.27;;;9.95;;
75062;SDS011;63981;51.052;13.754;2023-03-19T00:12:22;15.00;;;8.63;;
75062;SDS011;63981;51.052;13.754;2023-03-19T00:14:48;16.13;;;9.93;;
75062;SDS011;63981;51.052;13.754;2023-03-19T00:17:13;17.77;;;9.73;;
75062;SDS011;63981;51.052;13.754;2023-03-19T00:19:39;17.17;;;10.07;;
75062;SDS011;63981;51.052;13.754;2023-03-19T00:22:05;15.77;;;9.70;;
75062;SDS011;63981;51.052;13.754;2023-03-19T00:24:31;16.20;;;9.85;;
75062;SDS011;63981;51.052;13.754;2023-03-19T00:26:57;17.50;;;9.48;;
75062;SDS011;63981;51.052;13.754;2023-03-19T00:29:24;14.38;;;9.60;;
75062;SDS011;63981;51.052;13.754;2023-03-19T00:31:49;14.35;;;9.02;;
75062;SDS011;63981;51.052;13.754;2023-03-19T00:34:16;16.48;;;9.88;;
75062;SDS011;63981;51.052;13.754;2023-03-19T00:36:47;17.85;;;9.38;;
75062;SDS011;63981;51.052;13.754;2023-03-19T00:39:13;14.82;;;8.77;;
75062;SDS011;63981;51.052;13.754;2023-03-19T00:41:39;15.25;;;9.98;;
75062;SDS011;63981;51.052;13.754;2023-03-19T00:44:05;13.57;;;9.20;;
75062;SDS011;63981;51.052;13.754;2023-03-19T00:46:31;17.40;;;9.55;;
75062;SDS011;63981;51.052;13.754;2023-03-19T00:48:57;16.73;;;10.18;;
75062;SDS011;63981;51.052;13.754;2023-03-19T00:51:23;16.63;;;9.05;;
75062;SDS011;63981;51.052;13.754;2023-03-19T00:53:49;16.20;;;10.18;;
75062;SDS011;63981;51.052;13.754;2023-03-19T00:56:15;16.15;;;9.30;;
75062;SDS011;63981;51.052;13.754;2023-03-19T00:58:42;16.65;;;9.85;;
75062;SDS011;63981;51.052;13.754;2023-03-19T01:01:09;16.27;;;9.60;;
75062;SDS011;63981;51.052;13.754;2023-03-19T01:03:38;16.95;;;9.50;;
75062;SDS011;63981;51.052;13.754;2023-03-19T01:06:04;16.45;;;8.82;;
75062;SDS011;63981;51.052;13.754;2023-03-19T01:08:31;14.27;;;9.60;;
75062;SDS011;63981;51.052;13.754;2023-03-19T01:11:03;15.80;;;9.18;;
75062;SDS011;63981;51.052;13.754;2023-03-19T01:13:33;18.27;;;9.73;;
75062;SDS011;63981;51.052;13.754;2023-03-19T01:15:59;14.32;;;9.27;;
75062;SDS011;63981;51.052;13.754;2023-03-19T01:18:25;18.00;;;9.43;;
75062;SDS011;63981;51.052;13.754;2023-03-19T01:20:51;17.17;;;9.93;;
75062;SDS011;63981;51.052;13.754;2023-03-19T01:23:17;16.38;;;9.07;;
75062;SDS011;63981;51.052;13.754;2023-03-19T01:25:43;15.25;;;9.73;;
75062;SDS011;63981;51.052;13.754;2023-03-19T01:28:08;14.05;;;9.23;;
75062;SDS011;63981;51.052;13.754;2023-03-19T01:30:37;17.23;;;9.70;;
75062;SDS011;63981;51.052;13.754;2023-03-19T01:33:30;18.42;;;9.30;;
75062;SDS011;63981;51.052;13.754;2023-03-19T01:36:01;17.67;;;9.70;;
75062;SDS011;63981;51.052;13.754;2023-03-19T01:38:37;14.07;;;8.77;;
75062;SDS011;63981;51.052;13.754;2023-03-19T01:41:08;18.33;;;9.45;;
75062;SDS011;63981;51.052;13.754;2023-03-19T01:43:34;18.10;;;9.95;;
75062;SDS011;63981;51.052;13.754;2023-03-19T01:49:12;19.90;;;10.05;;
75062;SDS011;63981;51.052;13.754;2023-03-19T01:51:41;14.90;;;9.05;;
75062;SDS011;63981;51.052;13.754;2023-03-19T01:54:27;16.83;;;9.77;;
75062;SDS011;63981;51.052;13.754;2023-03-19T01:57:15;16.20;;;9.88;;
75062;SDS011;63981;51.052;13.754;2023-03-19T02:00:02;19.05;;;10.52;;
75062;SDS011;63981;51.052;13.754;2023-03-19T02:02:45;19.83;;;10.10;;
75062;SDS011;63981;51.052;13.754;2023-03-19T02:05:38;17.35;;;9.38;;
75062;SDS011;63981;51.052;13.754;2023-03-19T02:08:09;15.07;;;8.82;;
75062;SDS011;63981;51.052;13.754;2023-03-19T02:10:38;16.73;;;9.00;;
75062;SDS011;63981;51.052;13.754;2023-03-19T02:13:05;15.32;;;9.10;;
75062;SDS011;63981;51.052;13.754;2023-03-19T02:15:31;18.35;;;9.80;;
75062;SDS011;63981;51.052;13.754;2023-03-19T02:17:57;16.80;;;9.35;;
75062;SDS011;63981;51.052;13.754;2023-03-19T02:26:02;17.63;;;10.23;;
75062;SDS011;63981;51.052;13.754;2023-03-19T02:28:51;16.00;;;10.00;;
75062;SDS011;63981;51.052;13.754;2023-03-19T02:31:23;16.83;;;10.15;;
75062;SDS011;63981;51.052;13.754;2023-03-19T02:33:59;18.08;;;10.10;;
75062;SDS011;63981;51.052;13.754;2023-03-19T02:36:26;18.73;;;9.48;;
75062;SDS011;63981;51.052;13.754;2023-03-19T02:38:57;16.33;;;9.50;;
75062;SDS011;63981;51.052;13.754;2023-03-19T02:41:27;17.35;;;9.93;;
75062;SDS011;63981;51.052;13.754;2023-03-19T02:43:56;14.90;;;9.73;;
75062;SDS011;63981;51.052;13.754;2023-03-19T02:46:24;15.82;;;10.07;;
75062;SDS011;63981;51.052;13.754;2023-03-19T02:48:50;15.40;;;9.02;;
75062;SDS011;63981;51.052;13.754;2023-03-19T02:51:16;13.45;;;8.88;;
75062;SDS011;63981;51.052;13.754;2023-03-19T02:53:44;19.55;;;10.65;;
75062;SDS011;63981;51.052;13.754;2023-03-19T02:56:10;18.70;;;9.73;;
75062;SDS011;63981;51.052;13.754;2023-03-19T02:58:36;18.83;;;9.52;;
75062;SDS011;63981;51.052;13.754;2023-03-19T03:01:02;16.50;;;9.10;;
75062;SDS011;63981;51.052;13.754;2023-03-19T03:03:29;15.60;;;9.57;;
75062;SDS011;63981;51.052;13.754;2023-03-19T03:05:55;16.88;;;8.73;;
75062;SDS011;63981;51.052;13.754;2023-03-19T03:08:21;15.05;;;8.82;;
75062;SDS011;63981;51.052;13.754;2023-03-19T03:10:47;17.05;;;9.25;;
75062;SDS011;63981;51.052;13.754;2023-03-19T03:13:14;13.25;;;9.05;;
75062;SDS011;63981;51.052;13.754;2023-03-19T03:15:39;17.10;;;9.00;;
75062;SDS011;63981;51.052;13.754;2023-03-19T03:18:05;15.27;;;8.82;;
75062;SDS011;63981;51.052;13.754;2023-03-19T03:20:31;13.88;;;8.55;;
75062;SDS011;63981;51.052;13.754;2023-03-19T03:22:57;15.70;;;8.85;;
75062;SDS011;63981;51.052;13.754;2023-03-19T03:25:23;15.52;;;9.25;;
75062;SDS011;63981;51.052;13.754;2023-03-19T03:27:49;14.55;;;8.55;;
75062;SDS011;63981;51.052;13.754;2023-03-19T03:30:15;18.38;;;9.60;;
75062;SDS011;63981;51.052;13.754;2023-03-19T03:32:41;18.45;;;10.23;;
75062;SDS011;63981;51.052;13.754;2023-03-19T03:35:07;19.75;;;9.88;;
75062;SDS011;63981;51.052;13.754;2023-03-19T03:37:34;16.83;;;9.82;;
75062;SDS011;63981;51.052;13.754;2023-03-19T03:40:00;15.88;;;9.52;;
75062;SDS011;63981;51.052;13.754;2023-03-19T03:42:35;17.20;;;9.98;;
75062;SDS011;63981;51.052;13.754;2023-03-19T03:45:02;16.42;;;9.18;;
75062;SDS011;63981;51.052;13.754;2023-03-19T03:47:28;17.55;;;8.88;;
75062;SDS011;63981;51.052;13.754;2023-03-19T03:49:54;14.95;;;9.00;;
75062;SDS011;63981;51.052;13.754;2023-03-19T03:52:20;15.35;;;9.18;;
75062;SDS011;63981;51.052;13.754;2023-03-19T03:54:45;16.90;;;9.32;;
75062;SDS011;63981;51.052;13.754;2023-03-19T03:57:11;15.40;;;9.63;;
75062;SDS011;63981;51.052;13.754;2023-03-19T03:59:37;17.52;;;9.82;;
75062;SDS011;63981;51.052;13.754;2023-03-19T04:02:03;14.20;;;8.35;;
75062;SDS011;63981;51.052;13.754;2023-03-19T04:04:28;17.63;;;10.02;;
75062;SDS011;63981;51.052;13.754;2023-03-19T04:06:55;14.10;;;9.48;;
75062;SDS011;63981;51.052;13.754;2023-03-19T04:09:45;16.88;;;9.52;;
75062;SDS011;63981;51.052;13.754;2023-03-19T04:12:11;15.45;;;10.05;;
75062;SDS011;63981;51.052;13.754;2023-03-19T04:14:38;16.65;;;9.40;;
75062;SDS011;63981;51.052;13.754;2023-03-19T04:17:04;17.75;;;10.25;;
75062;SDS011;63981;51.052;13.754;2023-03-19T04:19:30;16.00;;;9.43;;
75062;SDS011;63981;51.052;13.754;2023-03-19T04:21:57;16.67;;;9.05;;
75062;SDS011;63981;51.052;13.754;2023-03-19T04:24:24;15.52;;;8.60;;
75062;SDS011;63981;51.052;13.754;2023-03-19T04:26:50;15.35;;;8.30;;
75062;SDS011;63981;51.052;13.754;2023-03-19T04:29:17;15.15;;;7.80;;
75062;SDS011;63981;51.052;13.754;2023-03-19T04:31:43;15.77;;;8.68;;
75062;SDS011;63981;51.052;13.754;2023-03-19T04:34:10;15.40;;;9.07;;
75062;SDS011;63981;51.052;13.754;2023-03-19T04:36:37;14.30;;;8.57;;
75062;SDS011;63981;51.052;13.754;2023-03-19T04:39:03;17.05;;;9.27;;
75062;SDS011;63981;51.052;13.754;2023-03-19T04:41:29;17.58;;;9.57;;
75062;SDS011;63981;51.052;13.754;2023-03-19T04:44:08;15.48;;;8.40;;
75062;SDS011;63981;51.052;13.754;2023-03-19T04:46:37;17.02;;;9.18;;
75062;SDS011;63981;51.052;13.754;2023-03-19T04:49:03;14.15;;;8.23;;
75062;SDS011;63981;51.052;13.754;2023-03-19T04:51:29;14.50;;;9.20;;
75062;SDS011;63981;51.052;13.754;2023-03-19T04:53:55;13.82;;;8.50;;
75062;SDS011;63981;51.052;13.754;2023-03-19T04:56:21;16.67;;;8.90;;
75062;SDS011;63981;51.052;13.754;2023-03-19T04:58:47;16.52;;;9.43;;
75062;SDS011;63981;51.052;13.754;2023-03-19T05:01:13;13.00;;;8.63;;
75062;SDS011;63981;51.052;13.754;2023-03-19T05:03:59;22.40;;;10.25;;
75062;SDS011;63981;51.052;13.754;2023-03-19T05:06:26;14.00;;;8.23;;
75062;SDS011;63981;51.052;13.754;2023-03-19T05:08:52;16.13;;;8.23;;
75062;SDS011;63981;51.052;13.754;2023-03-19T05:11:19;13.60;;;8.60;;
75062;SDS011;63981;51.052;13.754;2023-03-19T05:14:11;14.90;;;8.50;;
75062;SDS011;63981;51.052;13.754;2023-03-19T05:16:52;13.25;;;8.55;;
75062;SDS011;63981;51.052;13.754;2023-03-19T05:19:19;19.17;;;10.73;;
75062;SDS011;63981;51.052;13.754;2023-03-19T05:21:45;18.55;;;10.32;;
75062;SDS011;63981;51.052;13.754;2023-03-19T05:24:12;15.25;;;8.57;;
75062;SDS011;63981;51.052;13.754;2023-03-19T05:26:38;12.45;;;8.23;;
75062;SDS011;63981;51.052;13.754;2023-03-19T05:29:22;16.25;;;9.30;;
75062;SDS011;63981;51.052;13.754;2023-03-19T05:34:29;14.50;;;8.15;;
75062;SDS011;63981;51.052;13.754;2023-03-19T05:36:56;13.80;;;8.00;;
75062;SDS011;63981;51.052;13.754;2023-03-19T05:39:22;15.43;;;7.85;;
75062;SDS011;63981;51.052;13.754;2023-03-19T05:41:49;13.60;;;8.52;;
75062;SDS011;63981;51.052;13.754;2023-03-19T05:44:18;11.48;;;7.28;;
75062;SDS011;63981;51.052;13.754;2023-03-19T05:47:09;14.10;;;8.57;;
75062;SDS011;63981;51.052;13.754;2023-03-19T05:49:38;12.57;;;7.72;;
75062;SDS011;63981;51.052;13.754;2023-03-19T05:52:04;13.60;;;8.10;;
75062;SDS011;63981;51.052;13.754;2023-03-19T05:54:30;16.50;;;9.25;;
75062;SDS011;63981;51.052;13.754;2023-03-19T05:57:25;12.05;;;7.63;;
75062;SDS011;63981;51.052;13.754;2023-03-19T06:00:14;15.43;;;8.45;;
75062;SDS011;63981;51.052;13.754;2023-03-19T06:02:40;14.35;;;8.52;;
75062;SDS011;63981;51.052;13.754;2023-03-19T06:05:30;14.52;;;8.05;;
75062;SDS011;63981;51.052;13.754;2023-03-19T06:08:02;13.13;;;8.48;;
75062;SDS011;63981;51.052;13.754;2023-03-19T06:11:04;15.23;;;8.98;;
75062;SDS011;63981;51.052;13.754;2023-03-19T06:13:31;12.95;;;7.97;;
75062;SDS011;63981;51.052;13.754;2023-03-19T06:15:58;16.52;;;9.50;;
75062;SDS011;63981;51.052;13.754;2023-03-19T06:18:38;13.80;;;8.23;;
75062;SDS011;63981;51.052;13.754;2023-03-19T06:21:07;15.88;;;8.93;;
75062;SDS011;63981;51.052;13.754;2023-03-19T06:23:33;13.00;;;8.40;;
75062;SDS011;63981;51.052;13.754;2023-03-19T06:26:01;17.58;;;8.95;;
75062;SDS011;63981;51.052;13.754;2023-03-19T06:28:32;13.30;;;8.18;;
75062;SDS011;63981;51.052;13.754;2023-03-19T06:30:59;13.93;;;8.93;;
75062;SDS011;63981;51.052;13.754;2023-03-19T06:33:43;13.43;;;8.35;;
75062;SDS011;63981;51.052;13.754;2023-03-19T06:36:09;12.77;;;7.10;;
75062;SDS011;63981;51.052;13.754;2023-03-19T06:38:35;12.80;;;8.40;;
75062;SDS011;63981;51.052;13.754;2023-03-19T06:41:01;13.25;;;8.73;;
75062;SDS011;63981;51.052;13.754;2023-03-19T06:43:27;14.82;;;9.70;;
75062;SDS011;63981;51.052;13.754;2023-03-19T06:45:53;14.38;;;7.95;;
75062;SDS011;63981;51.052;13.754;2023-03-19T06:48:19;14.82;;;8.13;;
75062;SDS011;63981;51.052;13.754;2023-03-19T06:50:45;12.90;;;7.57;;
75062;SDS011;63981;51.052;13.754;2023-03-19T06:53:12;14.25;;;7.53;;
75062;SDS011;63981;51.052;13.754;2023-03-19T06:55:38;11.60;;;7.22;;
75062;SDS011;63981;51.052;13.754;2023-03-19T06:58:04;13.48;;;7.10;;
75062;SDS011;63981;51.052;13.754;2023-03-19T07:00:31;14.85;;;7.82;;
75062;SDS011;63981;51.052;13.754;2023-03-19T07:02:58;13.75;;;8.63;;
75062;SDS011;63981;51.052;13.754;2023-03-19T07:05:24;12.63;;;7.88;;
75062;SDS011;63981;51.052;13.754;2023-03-19T07:07:50;12.00;;;7.43;;
75062;SDS011;63981;51.052;13.754;2023-03-19T07:10:17;13.32;;;8.23;;
75062;SDS011;63981;51.052;13.754;2023-03-19T07:12:43;13.75;;;8.50;;
75062;SDS011;63981;51.052;13.754;2023-03-19T07:15:09;11.27;;;7.10;;
75062;SDS011;63981;51.052;13.754;2023-03-19T07:17:35;14.13;;;7.88;;
75062;SDS011;63981;51.052;13.754;2023-03-19T07:20:01;14.57;;;8.38;;
75062;SDS011;63981;51.052;13.754;2023-03-19T07:22:27;11.93;;;7.88;;
75062;SDS011;63981;51.052;13.754;2023-03-19T07:24:52;13.52;;;8.27;;
75062;SDS011;63981;51.052;13.754;2023-03-19T07:27:18;13.10;;;7.95;;
75062;SDS011;63981;51.052;13.754;2023-03-19T07:29:44;12.15;;;7.88;;
75062;SDS011;63981;51.052;13.754;2023-03-19T07:32:10;12.35;;;7.75;;
75062;SDS011;63981;51.052;13.754;2023-03-19T07:34:39;13.40;;;8.02;;
75062;SDS011;63981;51.052;13.754;2023-03-19T07:37:05;13.32;;;7.68;;
75062;SDS011;63981;51.052;13.754;2023-03-19T07:39:31;14.52;;;8.77;;
75062;SDS011;63981;51.052;13.754;2023-03-19T07:41:56;14.27;;;8.35;;
75062;SDS011;63981;51.052;13.754;2023-03-19T07:44:22;11.63;;;7.57;;
75062;SDS011;63981;51.052;13.754;2023-03-19T07:46:48;12.93;;;7.70;;
75062;SDS011;63981;51.052;13.754;2023-03-19T07:49:14;13.23;;;7.95;;
75062;SDS011;63981;51.052;13.754;2023-03-19T07:51:39;11.73;;;6.82;;
75062;SDS011;63981;51.052;13.754;2023-03-19T07:54:05;10.85;;;7.22;;
75062;SDS011;63981;51.052;13.754;2023-03-19T07:56:31;15.32;;;7.60;;
75062;SDS011;63981;51.052;13.754;2023-03-19T07:58:57;13.52;;;8.00;;
75062;SDS011;63981;51.052;13.754;2023-03-19T08:01:24;13.30;;;7.82;;
75062;SDS011;63981;51.052;13.754;2023-03-19T08:03:50;13.35;;;8.18;;
75062;SDS011;63981;51.052;13.754;2023-03-19T08:06:16;13.43;;;7.50;;
75062;SDS011;63981;51.052;13.754;2023-03-19T08:08:42;14.52;;;9.65;;
75062;SDS011;63981;51.052;13.754;2023-03-19T08:11:08;14.82;;;8.10;;
75062;SDS011;63981;51.052;13.754;2023-03-19T08:13:34;11.73;;;7.75;;
75062;SDS011;63981;51.052;13.754;2023-03-19T08:15:59;12.98;;;9.05;;
75062;SDS011;63981;51.052;13.754;2023-03-19T08:18:25;12.73;;;7.95;;
75062;SDS011;63981;51.052;13.754;2023-03-19T08:20:51;13.23;;;8.40;;
75062;SDS011;63981;51.052;13.754;2023-03-19T08:23:17;12.68;;;8.52;;
75062;SDS011;63981;51.052;13.754;2023-03-19T08:25:43;15.32;;;8.63;;
75062;SDS011;63981;51.052;13.754;2023-03-19T08:28:09;13.20;;;8.13;;
75062;SDS011;63981;51.052;13.754;2023-03-19T08:30:36;12.70;;;8.13;;
75062;SDS011;63981;51.052;13.754;2023-03-19T08:33:02;14.82;;;8.65;;
75062;SDS011;63981;51.052;13.754;2023-03-19T08:35:28;11.63;;;7.65;;
75062;SDS011;63981;51.052;13.754;2023-03-19T08:37:54;12.93;;;8.32;;
75062;SDS011;63981;51.052;13.754;2023-03-19T08:40:20;11.98;;;8.27;;
75062;SDS011;63981;51.052;13.754;2023-03-19T08:42:46;14.40;;;8.27;;
75062;SDS011;63981;51.052;13.754;2023-03-19T08:45:12;12.60;;;7.75;;
75062;SDS011;63981;51.052;13.754;2023-03-19T08:47:39;16.13;;;9.02;;
75062;SDS011;63981;51.052;13.754;2023-03-19T08:50:06;12.57;;;8.35;;
75062;SDS011;63981;51.052;13.754;2023-03-19T08:52:32;11.80;;;7.50;;
75062;SDS011;63981;51.052;13.754;2023-03-19T08:54:58;15.70;;;8.57;;
75062;SDS011;63981;51.052;13.754;2023-03-19T08:57:23;13.60;;;7.78;;
75062;SDS011;63981;51.052;13.754;2023-03-19T08:59:51;13.43;;;8.27;;
75062;SDS011;63981;51.052;13.754;2023-03-19T09:02:17;11.48;;;7.22;;
75062;SDS011;63981;51.052;13.754;2023-03-19T09:04:43;12.38;;;7.68;;
75062;SDS011;63981;51.052;13.754;2023-03-19T09:07:10;15.07;;;8.45;;
75062;SDS011;63981;51.052;13.754;2023-03-19T09:09:39;13.40;;;7.80;;
75062;SDS011;63981;51.052;13.754;2023-03-19T09:12:07;12.35;;;8.23;;
75062;SDS011;63981;51.052;13.754;2023-03-19T09:14:34;11.38;;;6.95;;
75062;SDS011;63981;51.052;13.754;2023-03-19T09:17:00;13.18;;;8.07;;
75062;SDS011;63981;51.052;13.754;2023-03-19T09:19:26;13.20;;;8.10;;
75062;SDS011;63981;51.052;13.754;2023-03-19T09:21:52;13.73;;;8.85;;
75062;SDS011;63981;51.052;13.754;2023-03-19T09:24:18;12.82;;;8.02;;
75062;SDS011;63981;51.052;13.754;2023-03-19T09:26:44;12.60;;;8.32;;
75062;SDS011;63981;51.052;13.754;2023-03-19T09:29:11;13.65;;;8.88;;
75062;SDS011;63981;51.052;13.754;2023-03-19T09:31:37;12.05;;;8.13;;
75062;SDS011;63981;51.052;13.754;2023-03-19T09:34:03;13.70;;;7.97;;
75062;SDS011;63981;51.052;13.754;2023-03-19T09:36:29;11.45;;;7.93;;
75062;SDS011;63981;51.052;13.754;2023-03-19T09:38:55;15.10;;;9.68;;
75062;SDS011;63981;51.052;13.754;2023-03-19T09:43:59;13.13;;;8.50;;
75062;SDS011;63981;51.052;13.754;2023-03-19T09:46:50;10.45;;;7.85;;
75062;SDS011;63981;51.052;13.754;2023-03-19T09:49:24;15.15;;;8.23;;
75062;SDS011;63981;51.052;13.754;2023-03-19T09:51:56;12.13;;;8.20;;
75062;SDS011;63981;51.052;13.754;2023-03-19T09:54:29;12.85;;;8.48;;
75062;SDS011;63981;51.052;13.754;2023-03-19T09:56:57;12.30;;;8.10;;
75062;SDS011;63981;51.052;13.754;2023-03-19T09:59:25;11.90;;;8.27;;
75062;SDS011;63981;51.052;13.754;2023-03-19T10:01:54;11.75;;;7.65;;
75062;SDS011;63981;51.052;13.754;2023-03-19T10:04:32;13.02;;;8.15;;
75062;SDS011;63981;51.052;13.754;2023-03-19T10:07:05;14.65;;;9.73;;
75062;SDS011;63981;51.052;13.754;2023-03-19T10:09:43;11.48;;;8.05;;
75062;SDS011;63981;51.052;13.754;2023-03-19T10:12:28;13.07;;;8.30;;
75062;SDS011;63981;51.052;13.754;2023-03-19T10:15:23;11.38;;;8.48;;
75062;SDS011;63981;51.052;13.754;2023-03-19T10:26:03;15.77;;;8.52;;
75062;SDS011;63981;51.052;13.754;2023-03-19T10:28:31;12.32;;;9.15;;
75062;SDS011;63981;51.052;13.754;2023-03-19T10:31:22;12.07;;;8.82;;
75062;SDS011;63981;51.052;13.754;2023-03-19T10:33:44;13.40;;;8.98;;
75062;SDS011;63981;51.052;13.754;2023-03-19T10:38:44;13.48;;;9.23;;
75062;SDS011;63981;51.052;13.754;2023-03-19T10:41:15;13.77;;;8.73;;
75062;SDS011;63981;51.052;13.754;2023-03-19T10:43:52;12.32;;;9.32;;
75062;SDS011;63981;51.052;13.754;2023-03-19T10:46:21;12.20;;;8.40;;
75062;SDS011;63981;51.052;13.754;2023-03-19T10:48:46;13.48;;;8.50;;
75062;SDS011;63981;51.052;13.754;2023-03-19T10:51:13;12.90;;;8.57;;
75062;SDS011;63981;51.052;13.754;2023-03-19T10:53:41;12.07;;;8.40;;
75062;SDS011;63981;51.052;13.754;2023-03-19T10:56:18;9.60;;;8.18;;
75062;SDS011;63981;51.052;13.754;2023-03-19T11:01:26;10.82;;;8.23;;
75062;SDS011;63981;51.052;13.754;2023-03-19T11:03:56;13.23;;;8.80;;
75062;SDS011;63981;51.052;13.754;2023-03-19T11:09:02;12.18;;;8.80;;
75062;SDS011;63981;51.052;13.754;2023-03-19T11:14:29;11.85;;;8.43;;
75062;SDS011;63981;51.052;13.754;2023-03-19T11:17:15;13.02;;;9.00;;
75062;SDS011;63981;51.052;13.754;2023-03-19T11:22:33;13.55;;;9.20;;
75062;SDS011;63981;51.052;13.754;2023-03-19T11:25:23;12.85;;;9.38;;
75062;SDS011;63981;51.052;13.754;2023-03-19T11:28:05;10.82;;;8.05;;
75062;SDS011;63981;51.052;13.754;2023-03-19T11:33:19;11.70;;;8.73;;
75062;SDS011;63981;51.052;13.754;2023-03-19T11:49:52;12.45;;;8.80;;
75062;SDS011;63981;51.052;13.754;2023-03-19T11:58:21;13.63;;;9.02;;
75062;SDS011;63981;51.052;13.754;2023-03-19T12:00:59;12.45;;;9.07;;
75062;SDS011;63981;51.052;13.754;2023-03-19T12:06:36;12.88;;;8.63;;
75062;SDS011;63981;51.052;13.754;2023-03-19T12:14:29;13.82;;;9.20;;
75062;SDS011;63981;51.052;13.754;2023-03-19T12:28:27;13.80;;;9.07;;
75062;SDS011;63981;51.052;13.754;2023-03-19T12:31:09;13.27;;;8.70;;
75062;SDS011;63981;51.052;13.754;2023-03-19T12:36:11;12.75;;;8.82;;
75062;SDS011;63981;51.052;13.754;2023-03-19T12:38:48;13.60;;;9.05;;
75062;SDS011;63981;51.052;13.754;2023-03-19T12:41:27;13.50;;;8.27;;
75062;SDS011;63981;51.052;13.754;2023-03-19T12:43:59;13.48;;;8.73;;
75062;SDS011;63981;51.052;13.754;2023-03-19T12:52:35;11.73;;;8.43;;
75062;SDS011;63981;51.052;13.754;2023-03-19T12:55:24;13.35;;;8.40;;
75062;SDS011;63981;51.052;13.754;2023-03-19T12:58:03;13.25;;;8.60;;
75062;SDS011;63981;51.052;13.754;2023-03-19T13:00:34;14.73;;;9.38;;
75062;SDS011;63981;51.052;13.754;2023-03-19T13:05:44;12.18;;;8.27;;
75062;SDS011;63981;51.052;13.754;2023-03-19T13:11:13;13.25;;;8.68;;
75062;SDS011;63981;51.052;13.754;2023-03-19T13:22:08;13.07;;;8.45;;
75062;SDS011;63981;51.052;13.754;2023-03-19T13:24:37;12.68;;;9.02;;
75062;SDS011;63981;51.052;13.754;2023-03-19T13:27:06;13.38;;;8.80;;
75062;SDS011;63981;51.052;13.754;2023-03-19T13:29:37;14.60;;;8.63;;
75062;SDS011;63981;51.052;13.754;2023-03-19T13:32:40;12.95;;;8.82;;
75062;SDS011;63981;51.052;13.754;2023-03-19T13:38:26;10.73;;;7.63;;
75062;SDS011;63981;51.052;13.754;2023-03-19T13:40:46;10.73;;;8.00;;
75062;SDS011;63981;51.052;13.754;2023-03-19T13:46:38;13.43;;;8.82;;
75062;SDS011;63981;51.052;13.754;2023-03-19T13:56:54;11.43;;;8.32;;
75062;SDS011;63981;51.052;13.754;2023-03-19T14:01:55;14.45;;;9.25;;
75062;SDS011;63981;51.052;13.754;2023-03-19T14:04:26;12.27;;;8.65;;
75062;SDS011;63981;51.052;13.754;2023-03-19T14:07:03;13.30;;;9.02;;
75062;SDS011;63981;51.052;13.754;2023-03-19T14:09:42;14.00;;;9.57;;
75062;SDS011;63981;51.052;13.754;2023-03-19T14:14:51;13.30;;;9.07;;
75062;SDS011;63981;51.052;13.754;2023-03-19T14:17:23;16.17;;;9.63;;
75062;SDS011;63981;51.052;13.754;2023-03-19T14:19:50;14.27;;;9.48;;
75062;SDS011;63981;51.052;13.754;2023-03-19T14:25:19;16.35;;;9.20;;
75062;SDS011;63981;51.052;13.754;2023-03-19T14:27:47;17.27;;;9.32;;
75062;SDS011;63981;51.052;13.754;2023-03-19T14:30:36;15.07;;;9.77;;
75062;SDS011;63981;51.052;13.754;2023-03-19T14:33:05;12.75;;;8.80;;
75062;SDS011;63981;51.052;13.754;2023-03-19T14:35:40;15.27;;;9.60;;
75062;SDS011;63981;51.052;13.754;2023-03-19T14:38:24;14.93;;;8.82;;
75062;SDS011;63981;51.052;13.754;2023-03-19T14:40:57;13.30;;;8.50;;
75062;SDS011;63981;51.052;13.754;2023-03-19T14:52:09;14.25;;;8.77;;
75062;SDS011;63981;51.052;13.754;2023-03-19T14:54:55;13.90;;;9.20;;
75062;SDS011;63981;51.052;13.754;2023-03-19T14:57:26;12.00;;;8.50;;
75062;SDS011;63981;51.052;13.754;2023-03-19T14:59:59;14.50;;;9.25;;
75062;SDS011;63981;51.052;13.754;2023-03-19T15:02:36;12.73;;;9.02;;
75062;SDS011;63981;51.052;13.754;2023-03-19T15:05:05;14.45;;;9.23;;
75062;SDS011;63981;51.052;13.754;2023-03-19T15:07:37;15.20;;;8.80;;
75062;SDS011;63981;51.052;13.754;2023-03-19T15:10:12;15.93;;;8.15;;
75062;SDS011;63981;51.052;13.754;2023-03-19T15:18:09;15.60;;;8.70;;
75062;SDS011;63981;51.052;13.754;2023-03-19T15:20:46;15.00;;;8.13;;
75062;SDS011;63981;51.052;13.754;2023-03-19T15:23:19;13.93;;;9.30;;
75062;SDS011;63981;51.052;13.754;2023-03-19T15:25:54;14.98;;;9.35;;
75062;SDS011;63981;51.052;13.754;2023-03-19T15:28:22;13.18;;;9.00;;
75062;SDS011;63981;51.052;13.754;2023-03-19T15:30:54;13.02;;;8.45;;
75062;SDS011;63981;51.052;13.754;2023-03-19T15:33:29;13.07;;;8.60;;
75062;SDS011;63981;51.052;13.754;2023-03-19T15:35:58;11.80;;;8.13;;
75062;SDS011;63981;51.052;13.754;2023-03-19T15:38:33;13.70;;;8.70;;
75062;SDS011;63981;51.052;13.754;2023-03-19T15:41:03;11.60;;;7.68;;
75062;SDS011;63981;51.052;13.754;2023-03-19T15:43:32;15.30;;;8.35;;
75062;SDS011;63981;51.052;13.754;2023-03-19T15:46:00;11.00;;;7.20;;
75062;SDS011;63981;51.052;13.754;2023-03-19T15:50:54;8.00;;;5.65;;
75062;SDS011;63981;51.052;13.754;2023-03-19T15:53:24;4.55;;;3.00;;
75062;SDS011;63981;51.052;13.754;2023-03-19T15:55:52;4.07;;;2.65;;
75062;SDS011;63981;51.052;13.754;2023-03-19T15:58:20;3.03;;;1.80;;
75062;SDS011;63981;51.052;13.754;2023-03-19T16:00:53;2.30;;;1.33;;
75062;SDS011;63981;51.052;13.754;2023-03-19T16:03:24;3.38;;;1.58;;
75062;SDS011;63981;51.052;13.754;2023-03-19T16:06:00;2.38;;;1.38;;
75062;SDS011;63981;51.052;13.754;2023-03-19T16:08:28;2.30;;;1.90;;
75062;SDS011;63981;51.052;13.754;2023-03-19T16:14:09;3.53;;;1.55;;
75062;SDS011;63981;51.052;13.754;2023-03-19T16:16:38;3.05;;;1.70;;
75062;SDS011;63981;51.052;13.754;2023-03-19T16:19:05;3.97;;;1.67;;
75062;SDS011;63981;51.052;13.754;2023-03-19T16:21:53;3.35;;;1.77;;
75062;SDS011;63981;51.052;13.754;2023-03-19T16:24:21;3.72;;;1.73;;
75062;SDS011;63981;51.052;13.754;2023-03-19T16:26:51;6.05;;;2.00;;
75062;SDS011;63981;51.052;13.754;2023-03-19T16:29:19;3.42;;;1.80;;
75062;SDS011;63981;51.052;13.754;2023-03-19T16:31:52;3.97;;;1.80;;
75062;SDS011;63981;51.052;13.754;2023-03-19T16:34:25;3.25;;;1.92;;
75062;SDS011;63981;51.052;13.754;2023-03-19T16:36:55;6.15;;;1.90;;
75062;SDS011;63981;51.052;13.754;2023-03-19T16:39:32;2.80;;;1.85;;
75062;SDS011;63981;51.052;13.754;2023-03-19T16:47:48;2.80;;;1.42;;
75062;SDS011;63981;51.052;13.754;2023-03-19T16:50:19;2.75;;;1.50;;
75062;SDS011;63981;51.052;13.754;2023-03-19T16:52:46;4.32;;;1.90;;
75062;SDS011;63981;51.052;13.754;2023-03-19T16:55:26;4.50;;;1.80;;
75062;SDS011;63981;51.052;13.754;2023-03-19T16:57:57;4.57;;;1.92;;
75062;SDS011;63981;51.052;13.754;2023-03-19T17:00:30;4.18;;;1.90;;
75062;SDS011;63981;51.052;13.754;2023-03-19T17:02:57;2.92;;;1.75;;
75062;SDS011;63981;51.052;13.754;2023-03-19T17:05:24;3.15;;;1.40;;